sensor_id;sensor_type;location;lat;lon;timestamp;pressure;altitude;pressure_sealevel;temperature;humidity
20930;BME280;21895;47.072;15.132;2023-12-20T00:01:06;96605.00;;;-1.89;77.15
20930;BME280;21895;47.072;15.132;2023-12-20T00:03:32;96599.00;;;-1.92;76.58
20930;BME280;21895;47.072;15.132;2023-12-20T00:06:09;96596.00;;;-1.76;77.66
20930;BME280;21895;47.072;15.132;2023-12-20T00:08:35;96602.00;;;-1.56;78.01
20930;BME280;21895;47.072;15.132;2023-12-20T00:11:02;96589.00;;;-1.38;76.74
20930;BME280;21895;47.072;15.132;2023-12-20T00:13:29;96597.00;;;-1.51;75.34
20930;BME280;21895;47.072;15.132;2023-12-20T00:15:55;96596.00;;;-1.83;75.74
20930;BME280;21895;47.072;15.132;2023-12-20T00:18:23;96589.00;;;-1.84;76.53
20930;BME280;21895;47.072;15.132;2023-12-20T00:20:49;96579.00;;;-1.76;77.13
20930;BME280;21895;47.072;15.132;2023-12-20T00:23:16;96573.00;;;-1.84;77.02
20930;BME280;21895;47.072;15.132;2023-12-20T00:25:42;96568.00;;;-1.76;78.53
20930;BME280;21895;47.072;15.132;2023-12-20T00:28:09;96569.00;;;-1.70;77.47
20930;BME280;21895;47.072;15.132;2023-12-20T00:30:36;96565.00;;;-1.65;76.80
20930;BME280;21895;47.072;15.132;2023-12-20T00:33:03;96563.00;;;-1.82;76.86
20930;BME280;21895;47.072;15.132;2023-12-20T00:35:30;96561.00;;;-1.87;75.76
20930;BME280;21895;47.072;15.132;2023-12-20T00:37:57;96567.00;;;-1.94;75.54
20930;BME280;21895;47.072;15.132;2023-12-20T00:40:24;96554.00;;;-1.91;77.96
20930;BME280;21895;47.072;15.132;2023-12-20T00:42:50;96548.00;;;-1.74;76.58
20930;BME280;21895;47.072;15.132;2023-12-20T00:45:17;96541.00;;;-1.76;76.02
20930;BME280;21895;47.072;15.132;2023-12-20T00:47:44;96545.00;;;-1.87;75.16
20930;BME280;21895;47.072;15.132;2023-12-20T00:50:11;96541.00;;;-2.04;76.16
20930;BME280;21895;47.072;15.132;2023-12-20T00:52:38;96544.00;;;-2.10;76.51
20930;BME280;21895;47.072;15.132;2023-12-20T00:55:05;96542.00;;;-1.89;76.81
20930;BME280;21895;47.072;15.132;2023-12-20T00:57:32;96534.00;;;-1.88;77.19
20930;BME280;21895;47.072;15.132;2023-12-20T00:59:58;96530.00;;;-1.77;76.26
20930;BME280;21895;47.072;15.132;2023-12-20T01:02:25;96531.00;;;-1.89;75.07
20930;BME280;21895;47.072;15.132;2023-12-20T01:04:52;96534.00;;;-2.01;75.44
20930;BME280;21895;47.072;15.132;2023-12-20T01:07:18;96532.00;;;-1.93;77.03
20930;BME280;21895;47.072;15.132;2023-12-20T01:09:45;96528.00;;;-1.81;79.12
20930;BME280;21895;47.072;15.132;2023-12-20T01:12:12;96528.00;;;-1.77;79.52
20930;BME280;21895;47.072;15.132;2023-12-20T01:14:38;96522.00;;;-1.72;76.79
20930;BME280;21895;47.072;15.132;2023-12-20T01:17:05;96518.00;;;-2.01;75.72
20930;BME280;21895;47.072;15.132;2023-12-20T01:19:32;96522.00;;;-2.06;76.14
20930;BME280;21895;47.072;15.132;2023-12-20T01:21:59;96524.00;;;-2.03;77.09
20930;BME280;21895;47.072;15.132;2023-12-20T01:24:25;96527.00;;;-1.95;76.61
20930;BME280;21895;47.072;15.132;2023-12-20T01:26:52;96523.00;;;-1.93;76.55
20930;BME280;21895;47.072;15.132;2023-12-20T01:29:18;96519.00;;;-2.09;75.22
20930;BME280;21895;47.072;15.132;2023-12-20T01:31:45;96516.00;;;-2.13;75.49
20930;BME280;21895;47.072;15.132;2023-12-20T01:34:12;96517.00;;;-2.11;76.29
20930;BME280;21895;47.072;15.132;2023-12-20T01:36:39;96515.00;;;-2.12;75.57
20930;BME280;21895;47.072;15.132;2023-12-20T01:39:05;96513.00;;;-2.30;74.95
20930;BME280;21895;47.072;15.132;2023-12-20T01:41:50;96503.00;;;-2.33;75.16
20930;BME280;21895;47.072;15.132;2023-12-20T01:44:17;96494.00;;;-2.36;75.22
20930;BME280;21895;47.072;15.132;2023-12-20T01:46:43;96492.00;;;-2.41;75.17
20930;BME280;21895;47.072;15.132;2023-12-20T01:49:10;96500.00;;;-2.44;75.31
20930;BME280;21895;47.072;15.132;2023-12-20T01:51:37;96498.00;;;-2.36;75.91
20930;BME280;21895;47.072;15.132;2023-12-20T01:54:05;96492.00;;;-2.30;75.21
20930;BME280;21895;47.072;15.132;2023-12-20T01:56:32;96484.00;;;-2.31;75.86
20930;BME280;21895;47.072;15.132;2023-12-20T01:59:01;96476.00;;;-2.23;75.46
20930;BME280;21895;47.072;15.132;2023-12-20T02:01:28;96485.00;;;-2.31;75.25
20930;BME280;21895;47.072;15.132;2023-12-20T02:03:56;96475.00;;;-2.24;75.20
20930;BME280;21895;47.072;15.132;2023-12-20T02:06:24;96475.00;;;-2.14;75.02
20930;BME280;21895;47.072;15.132;2023-12-20T02:08:55;96480.00;;;-2.24;75.48
20930;BME280;21895;47.072;15.132;2023-12-20T02:11:22;96473.00;;;-2.30;77.00
20930;BME280;21895;47.072;15.132;2023-12-20T02:13:49;96471.00;;;-2.46;75.98
20930;BME280;21895;47.072;15.132;2023-12-20T02:16:15;96465.00;;;-2.35;75.69
20930;BME280;21895;47.072;15.132;2023-12-20T02:18:43;96464.00;;;-2.34;76.00
20930;BME280;21895;47.072;15.132;2023-12-20T02:21:10;96464.00;;;-2.21;74.97
20930;BME280;21895;47.072;15.132;2023-12-20T02:23:37;96463.00;;;-2.44;74.21
20930;BME280;21895;47.072;15.132;2023-12-20T02:26:04;96451.00;;;-2.59;75.75
20930;BME280;21895;47.072;15.132;2023-12-20T02:28:33;96451.00;;;-2.39;78.96
20930;BME280;21895;47.072;15.132;2023-12-20T02:31:00;96448.00;;;-2.26;79.10
20930;BME280;21895;47.072;15.132;2023-12-20T02:33:26;96444.00;;;-2.11;79.48
20930;BME280;21895;47.072;15.132;2023-12-20T02:35:53;96445.00;;;-1.98;79.27
20930;BME280;21895;47.072;15.132;2023-12-20T02:38:20;96444.00;;;-1.84;79.34
20930;BME280;21895;47.072;15.132;2023-12-20T02:40:46;96432.00;;;-1.89;79.97
20930;BME280;21895;47.072;15.132;2023-12-20T02:43:16;96431.00;;;-1.90;77.00
20930;BME280;21895;47.072;15.132;2023-12-20T02:45:43;96423.00;;;-2.00;76.12
20930;BME280;21895;47.072;15.132;2023-12-20T02:48:10;96423.00;;;-2.06;75.57
20930;BME280;21895;47.072;15.132;2023-12-20T02:50:36;96411.00;;;-2.18;74.00
20930;BME280;21895;47.072;15.132;2023-12-20T02:53:03;96405.00;;;-2.49;73.82
20930;BME280;21895;47.072;15.132;2023-12-20T02:55:30;96394.00;;;-2.55;75.02
20930;BME280;21895;47.072;15.132;2023-12-20T02:57:57;96399.00;;;-2.48;75.62
20930;BME280;21895;47.072;15.132;2023-12-20T03:00:23;96388.00;;;-2.65;75.68
20930;BME280;21895;47.072;15.132;2023-12-20T03:02:50;96399.00;;;-2.74;75.41
20930;BME280;21895;47.072;15.132;2023-12-20T03:05:16;96396.00;;;-2.60;75.87
20930;BME280;21895;47.072;15.132;2023-12-20T03:07:43;96381.00;;;-2.48;78.49
20930;BME280;21895;47.072;15.132;2023-12-20T03:10:11;96374.00;;;-2.35;79.08
20930;BME280;21895;47.072;15.132;2023-12-20T03:12:49;96362.00;;;-2.00;79.81
20930;BME280;21895;47.072;15.132;2023-12-20T03:15:16;96363.00;;;-2.13;78.59
20930;BME280;21895;47.072;15.132;2023-12-20T03:17:42;96349.00;;;-2.13;77.07
20930;BME280;21895;47.072;15.132;2023-12-20T03:20:10;96357.00;;;-2.22;76.77
20930;BME280;21895;47.072;15.132;2023-12-20T03:22:36;96355.00;;;-2.29;76.35
20930;BME280;21895;47.072;15.132;2023-12-20T03:25:03;96361.00;;;-2.30;76.25
20930;BME280;21895;47.072;15.132;2023-12-20T03:27:30;96348.00;;;-2.46;75.03
20930;BME280;21895;47.072;15.132;2023-12-20T03:29:57;96348.00;;;-2.55;76.49
20930;BME280;21895;47.072;15.132;2023-12-20T03:32:23;96353.00;;;-2.45;77.37
20930;BME280;21895;47.072;15.132;2023-12-20T03:34:50;96342.00;;;-2.40;76.38
20930;BME280;21895;47.072;15.132;2023-12-20T03:37:17;96341.00;;;-2.46;77.29
20930;BME280;21895;47.072;15.132;2023-12-20T03:39:43;96340.00;;;-2.56;76.00
20930;BME280;21895;47.072;15.132;2023-12-20T03:42:10;96339.00;;;-2.68;75.30
20930;BME280;21895;47.072;15.132;2023-12-20T03:44:39;96332.00;;;-2.84;75.63
20930;BME280;21895;47.072;15.132;2023-12-20T03:47:08;96328.00;;;-2.80;76.07
20930;BME280;21895;47.072;15.132;2023-12-20T03:49:35;96324.00;;;-2.92;77.03
20930;BME280;21895;47.072;15.132;2023-12-20T03:52:04;96336.00;;;-2.85;78.55
20930;BME280;21895;47.072;15.132;2023-12-20T03:54:30;96330.00;;;-2.59;77.64
20930;BME280;21895;47.072;15.132;2023-12-20T03:56:57;96332.00;;;-2.52;79.00
20930;BME280;21895;47.072;15.132;2023-12-20T03:59:24;96329.00;;;-2.40;77.82
20930;BME280;21895;47.072;15.132;2023-12-20T04:01:50;96334.00;;;-2.47;76.29
20930;BME280;21895;47.072;15.132;2023-12-20T04:04:17;96330.00;;;-2.59;76.64
20930;BME280;21895;47.072;15.132;2023-12-20T04:06:44;96334.00;;;-2.63;77.63
20930;BME280;21895;47.072;15.132;2023-12-20T04:09:10;96331.00;;;-2.45;79.32
20930;BME280;21895;47.072;15.132;2023-12-20T04:11:38;96335.00;;;-2.18;79.40
20930;BME280;21895;47.072;15.132;2023-12-20T04:14:04;96331.00;;;-2.31;76.77
20930;BME280;21895;47.072;15.132;2023-12-20T04:16:31;96334.00;;;-2.57;75.08
20930;BME280;21895;47.072;15.132;2023-12-20T04:18:57;96334.00;;;-2.70;75.03
20930;BME280;21895;47.072;15.132;2023-12-20T04:21:24;96334.00;;;-2.86;76.01
20930;BME280;21895;47.072;15.132;2023-12-20T04:23:51;96326.00;;;-2.94;76.56
20930;BME280;21895;47.072;15.132;2023-12-20T04:26:17;96323.00;;;-2.89;76.90
20930;BME280;21895;47.072;15.132;2023-12-20T04:28:44;96330.00;;;-2.59;78.89
20930;BME280;21895;47.072;15.132;2023-12-20T04:31:10;96321.00;;;-2.27;77.95
20930;BME280;21895;47.072;15.132;2023-12-20T04:33:37;96322.00;;;-2.38;77.73
20930;BME280;21895;47.072;15.132;2023-12-20T04:36:04;96323.00;;;-2.24;78.77
20930;BME280;21895;47.072;15.132;2023-12-20T04:38:31;96318.00;;;-2.15;77.26
20930;BME280;21895;47.072;15.132;2023-12-20T04:40:57;96319.00;;;-2.32;76.73
20930;BME280;21895;47.072;15.132;2023-12-20T04:43:24;96317.00;;;-2.28;77.30
20930;BME280;21895;47.072;15.132;2023-12-20T04:45:50;96313.00;;;-2.18;76.84
20930;BME280;21895;47.072;15.132;2023-12-20T04:48:17;96309.00;;;-2.35;76.06
20930;BME280;21895;47.072;15.132;2023-12-20T04:50:44;96305.00;;;-2.39;75.69
20930;BME280;21895;47.072;15.132;2023-12-20T04:53:10;96303.00;;;-2.63;75.64
20930;BME280;21895;47.072;15.132;2023-12-20T04:55:37;96299.00;;;-2.69;76.16
20930;BME280;21895;47.072;15.132;2023-12-20T04:58:05;96293.00;;;-2.66;75.85
20930;BME280;21895;47.072;15.132;2023-12-20T05:00:31;96298.00;;;-2.71;76.50
20930;BME280;21895;47.072;15.132;2023-12-20T05:02:58;96303.00;;;-2.86;76.52
20930;BME280;21895;47.072;15.132;2023-12-20T05:05:25;96302.00;;;-2.28;76.12
20930;BME280;21895;47.072;15.132;2023-12-20T05:07:51;96302.00;;;-2.32;77.13
20930;BME280;21895;47.072;15.132;2023-12-20T05:10:19;96301.00;;;-2.32;78.07
20930;BME280;21895;47.072;15.132;2023-12-20T05:12:45;96289.00;;;-2.22;78.84
20930;BME280;21895;47.072;15.132;2023-12-20T05:15:12;96279.00;;;-2.22;78.16
20930;BME280;21895;47.072;15.132;2023-12-20T05:17:40;96271.00;;;-2.34;76.13
20930;BME280;21895;47.072;15.132;2023-12-20T05:20:08;96269.00;;;-2.53;76.40
20930;BME280;21895;47.072;15.132;2023-12-20T05:22:35;96274.00;;;-2.63;77.25
20930;BME280;21895;47.072;15.132;2023-12-20T05:25:01;96274.00;;;-2.64;77.00
20930;BME280;21895;47.072;15.132;2023-12-20T05:27:28;96271.00;;;-2.48;77.21
20930;BME280;21895;47.072;15.132;2023-12-20T05:29:55;96268.00;;;-2.42;75.97
20930;BME280;21895;47.072;15.132;2023-12-20T05:32:24;96274.00;;;-2.57;75.24
20930;BME280;21895;47.072;15.132;2023-12-20T05:34:51;96277.00;;;-2.66;76.77
20930;BME280;21895;47.072;15.132;2023-12-20T05:37:18;96281.00;;;-2.56;76.89
20930;BME280;21895;47.072;15.132;2023-12-20T05:39:44;96277.00;;;-2.36;76.94
20930;BME280;21895;47.072;15.132;2023-12-20T05:42:11;96286.00;;;-2.30;76.20
20930;BME280;21895;47.072;15.132;2023-12-20T05:44:38;96293.00;;;-2.30;76.58
20930;BME280;21895;47.072;15.132;2023-12-20T05:47:04;96296.00;;;-2.30;77.86
20930;BME280;21895;47.072;15.132;2023-12-20T05:49:31;96292.00;;;-2.22;77.70
20930;BME280;21895;47.072;15.132;2023-12-20T05:51:58;96295.00;;;-2.03;78.05
20930;BME280;21895;47.072;15.132;2023-12-20T05:54:24;96288.00;;;-1.78;77.00
20930;BME280;21895;47.072;15.132;2023-12-20T05:56:51;96293.00;;;-1.81;76.40
20930;BME280;21895;47.072;15.132;2023-12-20T05:59:17;96294.00;;;-1.77;76.47
20930;BME280;21895;47.072;15.132;2023-12-20T06:01:44;96295.00;;;-1.77;76.01
20930;BME280;21895;47.072;15.132;2023-12-20T06:04:11;96297.00;;;-1.82;75.88
20930;BME280;21895;47.072;15.132;2023-12-20T06:06:42;96312.00;;;-1.73;76.02
20930;BME280;21895;47.072;15.132;2023-12-20T06:09:09;96307.00;;;-1.69;77.07
20930;BME280;21895;47.072;15.132;2023-12-20T06:11:36;96313.00;;;-1.78;78.27
20930;BME280;21895;47.072;15.132;2023-12-20T06:14:02;96308.00;;;-1.24;77.62
20930;BME280;21895;47.072;15.132;2023-12-20T06:16:29;96308.00;;;-1.21;78.50
20930;BME280;21895;47.072;15.132;2023-12-20T06:18:56;96305.00;;;-1.21;79.80
20930;BME280;21895;47.072;15.132;2023-12-20T06:21:22;96305.00;;;-1.10;79.03
20930;BME280;21895;47.072;15.132;2023-12-20T06:23:49;96304.00;;;-1.11;77.51
20930;BME280;21895;47.072;15.132;2023-12-20T06:26:15;96303.00;;;-1.11;77.28
20930;BME280;21895;47.072;15.132;2023-12-20T06:28:42;96310.00;;;-1.10;77.29
20930;BME280;21895;47.072;15.132;2023-12-20T06:31:09;96306.00;;;-1.08;78.23
20930;BME280;21895;47.072;15.132;2023-12-20T06:33:36;96318.00;;;-0.99;78.00
20930;BME280;21895;47.072;15.132;2023-12-20T06:36:05;96315.00;;;-0.77;77.69
20930;BME280;21895;47.072;15.132;2023-12-20T06:38:33;96319.00;;;-0.78;78.53
20930;BME280;21895;47.072;15.132;2023-12-20T06:41:01;96322.00;;;-0.65;78.18
20930;BME280;21895;47.072;15.132;2023-12-20T06:43:30;96322.00;;;-0.75;78.38
20930;BME280;21895;47.072;15.132;2023-12-20T06:46:15;96329.00;;;-0.67;79.01
20930;BME280;21895;47.072;15.132;2023-12-20T06:48:45;96340.00;;;-0.47;78.80
20930;BME280;21895;47.072;15.132;2023-12-20T06:51:16;96326.00;;;-0.36;77.93
20930;BME280;21895;47.072;15.132;2023-12-20T06:53:43;96328.00;;;-0.36;77.65
20930;BME280;21895;47.072;15.132;2023-12-20T06:56:11;96326.00;;;-0.39;78.08
20930;BME280;21895;47.072;15.132;2023-12-20T06:58:41;96332.00;;;-0.49;78.38
20930;BME280;21895;47.072;15.132;2023-12-20T07:01:15;96334.00;;;-0.28;77.94
20930;BME280;21895;47.072;15.132;2023-12-20T07:03:42;96331.00;;;-0.25;77.93
20930;BME280;21895;47.072;15.132;2023-12-20T07:06:09;96335.00;;;-0.18;77.80
20930;BME280;21895;47.072;15.132;2023-12-20T07:08:35;96340.00;;;-0.15;77.92
20930;BME280;21895;47.072;15.132;2023-12-20T07:11:02;96345.00;;;-0.03;77.69
20930;BME280;21895;47.072;15.132;2023-12-20T07:13:30;96340.00;;;-0.05;77.63
20930;BME280;21895;47.072;15.132;2023-12-20T07:15:56;96341.00;;;-0.01;77.62
20930;BME280;21895;47.072;15.132;2023-12-20T07:18:23;96357.00;;;0.08;77.45
20930;BME280;21895;47.072;15.132;2023-12-20T07:20:50;96354.00;;;0.31;77.46
20930;BME280;21895;47.072;15.132;2023-12-20T07:23:17;96350.00;;;0.38;77.72
20930;BME280;21895;47.072;15.132;2023-12-20T07:25:43;96351.00;;;0.64;77.43
20930;BME280;21895;47.072;15.132;2023-12-20T07:28:10;96352.00;;;0.67;77.25
20930;BME280;21895;47.072;15.132;2023-12-20T07:30:37;96354.00;;;0.67;76.94
20930;BME280;21895;47.072;15.132;2023-12-20T07:33:04;96350.00;;;0.87;76.20
20930;BME280;21895;47.072;15.132;2023-12-20T07:35:31;96356.00;;;0.73;77.27
20930;BME280;21895;47.072;15.132;2023-12-20T07:37:57;96356.00;;;0.68;77.17
20930;BME280;21895;47.072;15.132;2023-12-20T07:40:24;96360.00;;;0.67;76.89
20930;BME280;21895;47.072;15.132;2023-12-20T07:42:51;96363.00;;;0.59;77.26
20930;BME280;21895;47.072;15.132;2023-12-20T07:45:18;96360.00;;;0.63;77.55
20930;BME280;21895;47.072;15.132;2023-12-20T07:47:44;96360.00;;;0.67;78.18
20930;BME280;21895;47.072;15.132;2023-12-20T07:50:12;96359.00;;;0.78;77.31
20930;BME280;21895;47.072;15.132;2023-12-20T07:52:39;96360.00;;;0.93;77.01
20930;BME280;21895;47.072;15.132;2023-12-20T07:55:07;96366.00;;;1.07;77.04
20930;BME280;21895;47.072;15.132;2023-12-20T07:57:33;96366.00;;;1.07;77.35
20930;BME280;21895;47.072;15.132;2023-12-20T08:00:00;96375.00;;;1.06;77.47
20930;BME280;21895;47.072;15.132;2023-12-20T08:02:27;96382.00;;;1.28;77.01
20930;BME280;21895;47.072;15.132;2023-12-20T08:04:54;96377.00;;;1.35;76.76
20930;BME280;21895;47.072;15.132;2023-12-20T08:07:20;96392.00;;;1.36;76.48
20930;BME280;21895;47.072;15.132;2023-12-20T08:09:47;96394.00;;;1.58;76.04
20930;BME280;21895;47.072;15.132;2023-12-20T08:12:14;96404.00;;;1.64;75.09
20930;BME280;21895;47.072;15.132;2023-12-20T08:14:41;96406.00;;;1.66;75.16
20930;BME280;21895;47.072;15.132;2023-12-20T08:17:08;96409.00;;;1.81;75.57
20930;BME280;21895;47.072;15.132;2023-12-20T08:19:35;96410.00;;;1.77;75.20
20930;BME280;21895;47.072;15.132;2023-12-20T08:22:01;96409.00;;;1.78;75.36
20930;BME280;21895;47.072;15.132;2023-12-20T08:24:29;96407.00;;;1.72;75.37
20930;BME280;21895;47.072;15.132;2023-12-20T08:26:56;96407.00;;;1.78;75.32
20930;BME280;21895;47.072;15.132;2023-12-20T08:29:23;96401.00;;;1.84;75.03
20930;BME280;21895;47.072;15.132;2023-12-20T08:31:53;96410.00;;;1.90;75.18
20930;BME280;21895;47.072;15.132;2023-12-20T08:34:23;96414.00;;;2.06;74.98
20930;BME280;21895;47.072;15.132;2023-12-20T08:36:53;96430.00;;;2.27;74.54
20930;BME280;21895;47.072;15.132;2023-12-20T08:39:20;96438.00;;;2.57;73.49
20930;BME280;21895;47.072;15.132;2023-12-20T08:41:47;96439.00;;;2.56;73.56
20930;BME280;21895;47.072;15.132;2023-12-20T08:44:13;96446.00;;;2.67;72.86
20930;BME280;21895;47.072;15.132;2023-12-20T08:46:40;96454.00;;;2.44;74.25
20930;BME280;21895;47.072;15.132;2023-12-20T08:49:07;96461.00;;;2.63;74.12
20930;BME280;21895;47.072;15.132;2023-12-20T08:51:35;96462.00;;;2.78;73.82
20930;BME280;21895;47.072;15.132;2023-12-20T08:54:04;96455.00;;;2.77;73.89
20930;BME280;21895;47.072;15.132;2023-12-20T08:56:34;96435.00;;;3.04;73.17
20930;BME280;21895;47.072;15.132;2023-12-20T08:59:02;96442.00;;;3.06;73.96
20930;BME280;21895;47.072;15.132;2023-12-20T09:01:28;96444.00;;;3.20;73.87
20930;BME280;21895;47.072;15.132;2023-12-20T09:03:55;96428.00;;;3.03;74.47
20930;BME280;21895;47.072;15.132;2023-12-20T09:06:22;96434.00;;;3.18;74.03
20930;BME280;21895;47.072;15.132;2023-12-20T09:08:48;96449.00;;;3.15;73.90
20930;BME280;21895;47.072;15.132;2023-12-20T09:11:15;96446.00;;;3.32;73.75
20930;BME280;21895;47.072;15.132;2023-12-20T09:13:42;96439.00;;;3.43;73.40
20930;BME280;21895;47.072;15.132;2023-12-20T09:16:10;96424.00;;;3.59;72.77
20930;BME280;21895;47.072;15.132;2023-12-20T09:18:37;96436.00;;;3.58;72.88
20930;BME280;21895;47.072;15.132;2023-12-20T09:21:04;96436.00;;;3.66;73.07
20930;BME280;21895;47.072;15.132;2023-12-20T09:23:30;96432.00;;;3.59;73.97
20930;BME280;21895;47.072;15.132;2023-12-20T09:25:57;96422.00;;;3.70;74.23
20930;BME280;21895;47.072;15.132;2023-12-20T09:28:24;96425.00;;;3.66;74.62
20930;BME280;21895;47.072;15.132;2023-12-20T09:30:51;96411.00;;;3.65;74.76
20930;BME280;21895;47.072;15.132;2023-12-20T09:33:17;96410.00;;;3.68;74.93
20930;BME280;21895;47.072;15.132;2023-12-20T09:35:44;96411.00;;;3.62;75.10
20930;BME280;21895;47.072;15.132;2023-12-20T09:38:11;96424.00;;;3.72;74.41
20930;BME280;21895;47.072;15.132;2023-12-20T09:40:41;96429.00;;;4.06;73.88
20930;BME280;21895;47.072;15.132;2023-12-20T09:43:15;96427.00;;;3.97;73.78
20930;BME280;21895;47.072;15.132;2023-12-20T09:45:48;96416.00;;;3.98;73.69
20930;BME280;21895;47.072;15.132;2023-12-20T09:48:18;96410.00;;;4.03;73.56
20930;BME280;21895;47.072;15.132;2023-12-20T09:50:46;96410.00;;;4.04;73.23
20930;BME280;21895;47.072;15.132;2023-12-20T09:53:21;96406.00;;;4.18;73.72
20930;BME280;21895;47.072;15.132;2023-12-20T09:55:49;96398.00;;;4.30;73.71
20930;BME280;21895;47.072;15.132;2023-12-20T09:58:16;96391.00;;;4.42;73.69
20930;BME280;21895;47.072;15.132;2023-12-20T10:00:43;96391.00;;;4.57;73.35
20930;BME280;21895;47.072;15.132;2023-12-20T10:03:11;96386.00;;;4.62;72.84
20930;BME280;21895;47.072;15.132;2023-12-20T10:05:43;96378.00;;;4.77;72.52
20930;BME280;21895;47.072;15.132;2023-12-20T10:08:10;96383.00;;;4.77;72.81
20930;BME280;21895;47.072;15.132;2023-12-20T10:10:36;96383.00;;;4.82;72.90
20930;BME280;21895;47.072;15.132;2023-12-20T10:13:14;96390.00;;;4.93;72.64
20930;BME280;21895;47.072;15.132;2023-12-20T10:15:41;96389.00;;;5.04;72.59
20930;BME280;21895;47.072;15.132;2023-12-20T10:18:09;96388.00;;;5.16;72.16
20930;BME280;21895;47.072;15.132;2023-12-20T10:20:37;96384.00;;;5.26;72.19
20930;BME280;21895;47.072;15.132;2023-12-20T10:23:04;96380.00;;;5.32;72.37
20930;BME280;21895;47.072;15.132;2023-12-20T10:25:30;96377.00;;;5.25;73.08
20930;BME280;21895;47.072;15.132;2023-12-20T10:28:15;96373.00;;;5.31;73.16
20930;BME280;21895;47.072;15.132;2023-12-20T10:30:47;96371.00;;;5.36;72.88
20930;BME280;21895;47.072;15.132;2023-12-20T10:33:24;96375.00;;;5.32;72.33
20930;BME280;21895;47.072;15.132;2023-12-20T10:35:51;96369.00;;;5.16;72.27
20930;BME280;21895;47.072;15.132;2023-12-20T10:38:18;96367.00;;;5.30;72.20
20930;BME280;21895;47.072;15.132;2023-12-20T10:40:48;96374.00;;;5.13;72.81
20930;BME280;21895;47.072;15.132;2023-12-20T10:43:21;96372.00;;;5.13;73.05
20930;BME280;21895;47.072;15.132;2023-12-20T10:45:48;96366.00;;;5.21;72.58
20930;BME280;21895;47.072;15.132;2023-12-20T10:48:16;96375.00;;;5.30;72.05
20930;BME280;21895;47.072;15.132;2023-12-20T10:50:44;96368.00;;;5.40;71.74
20930;BME280;21895;47.072;15.132;2023-12-20T10:53:12;96362.00;;;5.56;71.82
20930;BME280;21895;47.072;15.132;2023-12-20T10:55:39;96350.00;;;5.64;71.52
20930;BME280;21895;47.072;15.132;2023-12-20T10:58:09;96354.00;;;5.66;71.54
20930;BME280;21895;47.072;15.132;2023-12-20T11:00:40;96359.00;;;5.72;71.43
20930;BME280;21895;47.072;15.132;2023-12-20T11:03:09;96354.00;;;5.72;71.26
20930;BME280;21895;47.072;15.132;2023-12-20T11:06:01;96354.00;;;5.70;70.95
20930;BME280;21895;47.072;15.132;2023-12-20T11:08:56;96348.00;;;5.76;70.73
20930;BME280;21895;47.072;15.132;2023-12-20T11:11:46;96344.00;;;5.78;70.62
20930;BME280;21895;47.072;15.132;2023-12-20T11:14:29;96344.00;;;5.82;70.98
20930;BME280;21895;47.072;15.132;2023-12-20T11:17:11;96351.00;;;5.83;71.61
20930;BME280;21895;47.072;15.132;2023-12-20T11:22:04;96354.00;;;5.94;71.43
20930;BME280;21895;47.072;15.132;2023-12-20T11:24:32;96344.00;;;6.32;70.24
20930;BME280;21895;47.072;15.132;2023-12-20T11:27:00;96344.00;;;6.48;70.51
20930;BME280;21895;47.072;15.132;2023-12-20T11:29:35;96343.00;;;6.61;70.52
20930;BME280;21895;47.072;15.132;2023-12-20T11:32:04;96331.00;;;6.70;70.72
20930;BME280;21895;47.072;15.132;2023-12-20T11:35:36;96334.00;;;6.94;70.33
20930;BME280;21895;47.072;15.132;2023-12-20T11:38:03;96332.00;;;7.04;70.42
20930;BME280;21895;47.072;15.132;2023-12-20T11:40:35;96322.00;;;7.18;69.55
20930;BME280;21895;47.072;15.132;2023-12-20T11:43:02;96309.00;;;7.11;69.13
20930;BME280;21895;47.072;15.132;2023-12-20T11:45:29;96313.00;;;7.20;68.80
20930;BME280;21895;47.072;15.132;2023-12-20T11:47:57;96306.00;;;7.30;68.11
20930;BME280;21895;47.072;15.132;2023-12-20T11:50:26;96306.00;;;7.38;67.96
20930;BME280;21895;47.072;15.132;2023-12-20T11:52:53;96300.00;;;7.40;67.67
20930;BME280;21895;47.072;15.132;2023-12-20T11:55:24;96306.00;;;7.49;66.79
20930;BME280;21895;47.072;15.132;2023-12-20T11:57:52;96297.00;;;7.57;66.39
20930;BME280;21895;47.072;15.132;2023-12-20T12:00:19;96282.00;;;7.49;65.33
20930;BME280;21895;47.072;15.132;2023-12-20T12:03:05;96279.00;;;7.56;64.96
20930;BME280;21895;47.072;15.132;2023-12-20T12:05:31;96280.00;;;7.25;65.47
20930;BME280;21895;47.072;15.132;2023-12-20T12:07:59;96278.00;;;7.22;65.80
20930;BME280;21895;47.072;15.132;2023-12-20T12:10:25;96284.00;;;7.24;65.94
20930;BME280;21895;47.072;15.132;2023-12-20T12:12:52;96281.00;;;7.25;66.38
20930;BME280;21895;47.072;15.132;2023-12-20T12:15:20;96279.00;;;7.14;67.45
20930;BME280;21895;47.072;15.132;2023-12-20T12:17:57;96269.00;;;7.26;67.90
20930;BME280;21895;47.072;15.132;2023-12-20T12:20:24;96261.00;;;7.35;66.99
20930;BME280;21895;47.072;15.132;2023-12-20T12:23:06;96266.00;;;7.14;67.85
20930;BME280;21895;47.072;15.132;2023-12-20T12:25:36;96261.00;;;7.13;67.86
20930;BME280;21895;47.072;15.132;2023-12-20T12:28:09;96264.00;;;7.17;68.16
20930;BME280;21895;47.072;15.132;2023-12-20T12:30:36;96256.00;;;7.13;67.40
20930;BME280;21895;47.072;15.132;2023-12-20T12:33:12;96257.00;;;7.38;67.87
20930;BME280;21895;47.072;15.132;2023-12-20T12:35:40;96258.00;;;7.24;67.80
20930;BME280;21895;47.072;15.132;2023-12-20T12:38:08;96250.00;;;7.36;67.92
20930;BME280;21895;47.072;15.132;2023-12-20T12:40:35;96263.00;;;7.51;67.09
20930;BME280;21895;47.072;15.132;2023-12-20T12:43:02;96263.00;;;7.61;66.42
20930;BME280;21895;47.072;15.132;2023-12-20T12:45:30;96255.00;;;7.58;66.77
20930;BME280;21895;47.072;15.132;2023-12-20T12:47:57;96265.00;;;7.64;66.40
20930;BME280;21895;47.072;15.132;2023-12-20T12:50:23;96260.00;;;7.75;65.76
20930;BME280;21895;47.072;15.132;2023-12-20T12:52:50;96267.00;;;7.76;65.55
20930;BME280;21895;47.072;15.132;2023-12-20T12:55:17;96264.00;;;7.72;65.52
20930;BME280;21895;47.072;15.132;2023-12-20T12:57:43;96261.00;;;7.76;64.90
20930;BME280;21895;47.072;15.132;2023-12-20T13:00:11;96256.00;;;7.81;64.72
20930;BME280;21895;47.072;15.132;2023-12-20T13:02:38;96251.00;;;7.83;64.14